Time;durP1;ratioP1;P1;durP2;ratioP2;P2;SDS_P1;SDS_P2;PMS_P1;PMS_P2;Temp;Humidity;BMP_temperature;BMP_pressure;BME280_temperature;BME280_humidity;BME280_pressure;Samples;Min_cycle;Max_cycle;Signal;HPM_P1;HPM_P2
2023/07/07 07:40:44;;;;;;;2.10;1.10;;;30.50;90.60;;;;;;2940017;23;20262;-67
2023/07/07 07:43:11;;;;;;;2.17;1.00;;;30.30;89.30;;;;;;4952325;28;20220;-67
2023/07/07 07:45:38;;;;;;;2.00;1.27;;;30.20;90.30;;;;;;4954987;28;20204;-66
2023/07/07 07:48:06;;;;;;;1.30;0.75;;;30.60;91.00;;;;;;4940034;28;20729;-68
2023/07/07 07:50:33;;;;;;;1.17;0.90;;;30.50;90.30;;;;;;4942314;29;20246;-69
2023/07/07 07:53:00;;;;;;;1.52;1.10;;;30.40;90.20;;;;;;4939137;28;20201;-67
2023/07/07 07:55:27;;;;;;;2.38;1.10;;;30.20;90.40;;;;;;4935223;29;20616;-67
2023/07/07 07:57:55;;;;;;;1.40;1.00;;;30.10;90.30;;;;;;4921640;29;20264;-69
2023/07/07 08:00:22;;;;;;;2.15;0.98;;;30.30;90.60;;;;;;4916043;29;20469;-66
2023/07/07 08:02:50;;;;;;;3.80;1.35;;;30.20;90.20;;;;;;4929354;29;20571;-67
2023/07/07 08:05:17;;;;;;;1.48;0.90;;;30.20;90.50;;;;;;4935339;29;20205;-67
2023/07/07 08:07:44;;;;;;;2.53;1.20;;;30.50;90.50;;;;;;4922913;29;20700;-67
2023/07/07 08:10:11;;;;;;;1.60;0.90;;;30.90;90.60;;;;;;4916272;29;20206;-70
2023/07/07 08:12:38;;;;;;;2.72;1.00;;;31.40;90.60;;;;;;4925513;29;20213;-69
2023/07/07 08:15:07;;;;;;;2.10;1.10;;;32.10;90.50;;;;;;4933810;29;20204;-68
2023/07/07 08:17:33;;;;;;;1.92;0.90;;;32.50;88.30;;;;;;4922848;29;20230;-69
2023/07/07 08:20:00;;;;;;;1.35;1.08;;;31.80;87.20;;;;;;4914286;29;20744;-67
2023/07/07 08:22:27;;;;;;;1.58;1.20;;;30.80;88.00;;;;;;4928689;29;20219;-68
2023/07/07 08:24:56;;;;;;;3.25;1.30;;;30.30;90.50;;;;;;4935081;29;20212;-71
2023/07/07 08:27:24;;;;;;;4.00;1.10;;;30.30;89.30;;;;;;4933989;29;20255;-68
2023/07/07 08:29:52;;;;;;;5.30;1.10;;;30.50;88.40;;;;;;4935025;29;20218;-70
2023/07/07 08:32:23;;;;;;;2.33;1.15;;;31.00;90.00;;;;;;4934996;29;20212;-69
2023/07/07 08:34:50;;;;;;;3.63;1.20;;;31.50;90.00;;;;;;4937132;29;20291;-70
2023/07/07 08:37:17;;;;;;;1.13;0.90;;;31.50;88.80;;;;;;4936936;29;20536;-69
2023/07/07 08:39:44;;;;;;;2.85;1.35;;;31.60;90.40;;;;;;4938284;29;20209;-69
2023/07/07 08:42:22;;;;;;;2.03;1.20;;;31.10;88.70;;;;;;4937886;29;20594;-69
2023/07/07 08:44:50;;;;;;;2.28;0.98;;;31.10;87.20;;;;;;4930964;29;20265;-68
2023/07/07 08:47:39;;;;;;;1.65;1.00;;;31.20;90.00;;;;;;4925597;29;20579;-68
2023/07/07 08:50:09;;;;;;;1.85;1.05;;;31.50;86.80;;;;;;4938185;29;20209;-70
2023/07/07 08:52:45;;;;;;;2.05;1.02;;;31.60;86.80;;;;;;4937985;29;20296;-70
2023/07/07 08:55:40;;;;;;;2.05;1.15;;;31.90;86.60;;;;;;4938042;29;20205;-71
2023/07/07 08:58:14;;;;;;;1.70;1.00;;;31.40;85.70;;;;;;4922800;29;20323;-71
2023/07/07 09:00:51;;;;;;;1.92;1.17;;;31.70;87.50;;;;;;4918857;29;20328;-68
2023/07/07 09:03:31;;;;;;;1.65;0.90;;;31.40;87.70;;;;;;4919042;29;20728;-68
2023/07/07 09:06:09;;;;;;;1.73;1.13;;;31.20;86.80;;;;;;4918957;29;20556;-68
2023/07/07 09:08:42;;;;;;;1.27;1.00;;;31.70;88.50;;;;;;4918396;29;20241;-69
2023/07/07 09:11:18;;;;;;;1.55;1.10;;;31.90;88.00;;;;;;4918696;29;20210;-68
2023/07/07 09:13:47;;;;;;;3.30;1.08;;;31.60;85.00;;;;;;4918438;29;20661;-68
2023/07/07 09:16:21;;;;;;;3.45;0.90;;;32.10;88.30;;;;;;4918613;29;20538;-68
2023/07/07 09:18:56;;;;;;;2.33;1.02;;;32.70;87.00;;;;;;4918762;29;20679;-68
2023/07/07 09:21:29;;;;;;;1.55;1.20;;;32.00;84.30;;;;;;4918508;29;20233;-68
2023/07/07 09:24:03;;;;;;;1.65;1.17;;;31.40;84.60;;;;;;4918616;29;20719;-68
2023/07/07 09:26:32;;;;;;;1.67;1.20;;;31.70;88.20;;;;;;4918267;29;20236;-68
2023/07/07 09:29:02;;;;;;;2.17;1.10;;;31.40;85.60;;;;;;4918486;29;20232;-69
2023/07/07 09:31:38;;;;;;;2.95;1.15;;;30.90;86.80;;;;;;4917993;29;20301;-69
2023/07/07 09:34:11;;;;;;;1.58;1.00;;;31.10;88.30;;;;;;4918514;29;20216;-69
2023/07/07 09:36:48;;;;;;;1.88;1.13;;;30.60;89.50;;;;;;4918241;29;20213;-69
2023/07/07 09:39:44;;;;;;;2.50;0.98;;;31.00;86.40;;;;;;4918449;29;20240;-69
2023/07/07 09:42:32;;;;;;;2.05;1.20;;;30.60;85.20;;;;;;4914765;29;20716;-69
2023/07/07 09:45:13;;;;;;;3.42;0.98;;;31.10;83.60;;;;;;4918736;29;20273;-69
2023/07/07 09:47:49;;;;;;;2.03;1.27;;;31.40;86.40;;;;;;4918506;29;20321;-69
2023/07/07 09:50:24;;;;;;;3.30;1.40;;;31.10;84.90;;;;;;4918489;29;20216;-69
2023/07/07 09:52:57;;;;;;;2.58;1.30;;;30.70;84.20;;;;;;4918539;29;20220;-68
2023/07/07 09:55:28;;;;;;;2.28;1.05;;;30.30;86.20;;;;;;4918134;29;20209;-69
2023/07/07 09:58:01;;;;;;;2.65;1.13;;;29.80;86.70;;;;;;4918314;29;20236;-68
2023/07/07 10:00:30;;;;;;;1.27;0.90;;;29.30;87.20;;;;;;4918740;29;20228;-68
2023/07/07 10:02:58;;;;;;;1.67;1.10;;;29.50;88.90;;;;;;4919762;29;20213;-68
2023/07/07 10:05:34;;;;;;;4.00;1.20;;;29.40;87.70;;;;;;4919335;29;20219;-68
2023/07/07 10:08:04;;;;;;;1.80;1.10;;;29.90;88.50;;;;;;4917977;29;20708;-68
2023/07/07 10:10:31;;;;;;;2.08;1.10;;;30.40;88.30;;;;;;4918442;29;20210;-68
2023/07/07 10:12:58;;;;;;;1.83;0.93;;;30.10;86.20;;;;;;4917418;29;20308;-69
2023/07/07 10:15:48;;;;;;;2.22;1.00;;;30.10;88.30;;;;;;4917579;29;20206;-68
2023/07/07 10:18:19;;;;;;;1.77;1.10;;;29.50;86.80;;;;;;4917595;29;20229;-68
2023/07/07 10:20:47;;;;;;;1.85;1.20;;;29.10;87.90;;;;;;4917444;29;20213;-68
2023/07/07 10:23:15;;;;;;;1.52;1.10;;;28.60;88.70;;;;;;4917542;29;20220;-68
2023/07/07 10:25:44;;;;;;;2.15;1.10;;;28.50;89.20;;;;;;4917566;29;20213;-68
2023/07/07 10:28:13;;;;;;;2.33;1.35;;;28.40;87.70;;;;;;4917302;29;20230;-68
2023/07/07 10:30:42;;;;;;;2.08;1.20;;;28.00;88.20;;;;;;4917400;29;20214;-68
2023/07/07 10:33:11;;;;;;;3.47;1.13;;;27.40;89.80;;;;;;4916969;29;20214;-68
2023/07/07 10:35:37;;;;;;;1.98;1.20;;;27.50;90.70;;;;;;4917273;29;20205;-68
2023/07/07 10:38:07;;;;;;;1.35;1.00;;;27.80;90.30;;;;;;4917330;29;20731;-68
2023/07/07 10:40:35;;;;;;;2.45;1.40;;;27.70;90.40;;;;;;4917110;29;20224;-68
2023/07/07 10:43:03;;;;;;;2.90;1.05;;;27.80;88.20;;;;;;4917173;29;20617;-68
2023/07/07 10:45:30;;;;;;;7.82;1.10;;;27.90;90.10;;;;;;4917235;29;20665;-68
2023/07/07 10:47:57;;;;;;;2.22;1.30;;;27.90;88.60;;;;;;4917308;29;20229;-68
2023/07/07 10:50:26;;;;;;;1.80;1.25;;;27.80;90.50;;;;;;4917235;29;20220;-68
2023/07/07 10:53:12;;;;;;;5.05;1.50;;;27.90;89.30;;;;;;4917140;29;20213;-68
2023/07/07 10:55:55;;;;;;;3.20;1.80;;;27.80;88.50;;;;;;4917123;29;20624;-69
2023/07/07 10:58:31;;;;;;;2.90;1.30;;;27.80;85.70;;;;;;4916395;29;20238;-69
2023/07/07 11:01:06;;;;;;;2.63;1.10;;;27.80;84.50;;;;;;4917063;29;20220;-68
2023/07/07 11:04:00;;;;;;;2.83;1.35;;;27.90;88.50;;;;;;4916973;29;20688;-67
2023/07/07 11:06:36;;;;;;;2.28;1.30;;;28.30;87.80;;;;;;4916968;29;20210;-69
2023/07/07 11:09:17;;;;;;;2.67;1.42;;;28.50;85.30;;;;;;4917334;29;20232;-68
2023/07/07 11:11:49;;;;;;;2.00;1.35;;;28.40;86.90;;;;;;4916975;29;20235;-68
2023/07/07 11:14:32;;;;;;;4.07;1.35;;;28.30;86.60;;;;;;4916927;29;20206;-68
2023/07/07 11:17:14;;;;;;;4.43;1.60;;;28.00;84.20;;;;;;4916624;29;20220;-68
2023/07/07 11:19:59;;;;;;;2.17;1.42;;;28.00;83.50;;;;;;4916802;29;20213;-68
2023/07/07 11:22:42;;;;;;;3.13;1.70;;;28.20;87.50;;;;;;4916790;29;20237;-69
2023/07/07 11:25:20;;;;;;;3.08;1.33;;;28.50;88.40;;;;;;4916739;29;20572;-68
2023/07/07 11:28:08;;;;;;;2.85;1.30;;;28.40;83.30;;;;;;4916519;29;20633;-68
2023/07/07 11:30:46;;;;;;;2.95;1.45;;;28.20;84.10;;;;;;4916907;29;20213;-68
2023/07/07 11:33:26;;;;;;;2.15;1.20;;;28.10;85.40;;;;;;4916566;29;20239;-68
2023/07/07 11:36:03;;;;;;;2.08;1.20;;;28.30;85.20;;;;;;4916715;29;20213;-68
2023/07/07 11:38:43;;;;;;;3.00;1.48;;;28.40;87.20;;;;;;4916499;29;20226;-68
2023/07/07 11:41:23;;;;;;;2.75;1.40;;;28.30;84.80;;;;;;4916757;29;20223;-67
2023/07/07 11:44:18;;;;;;;1.98;1.20;;;28.50;87.70;;;;;;4916495;29;20205;-67
2023/07/07 11:47:27;;;;;;;3.22;1.52;;;28.40;84.30;;;;;;4912903;29;20214;-68
2023/07/07 11:50:12;;;;;;;2.47;1.25;;;28.30;81.70;;;;;;4916686;29;20209;-68
2023/07/07 11:52:53;;;;;;;3.40;1.40;;;28.20;86.60;;;;;;4916656;29;20205;-68
2023/07/07 11:55:36;;;;;;;2.63;1.52;;;28.50;86.70;;;;;;4916683;29;20209;-68
2023/07/07 11:58:17;;;;;;;2.88;1.77;;;28.40;82.40;;;;;;4916431;29;20252;-68
2023/07/07 12:00:52;;;;;;;3.55;1.40;;;28.60;85.10;;;;;;4916552;29;20580;-68
2023/07/07 12:03:35;;;;;;;2.38;1.33;;;28.60;82.90;;;;;;4916607;29;20327;-68
2023/07/07 12:06:06;;;;;;;2.65;1.52;;;28.70;84.00;;;;;;4916585;29;20205;-67
2023/07/07 12:08:39;;;;;;;2.60;1.73;;;28.60;83.30;;;;;;4916486;29;20272;-68
2023/07/07 12:11:10;;;;;;;2.40;1.77;;;28.50;82.70;;;;;;4931825;29;20291;-69
2023/07/07 12:13:44;;;;;;;1.85;1.35;;;28.70;86.70;;;;;;4938698;29;20219;-69
2023/07/07 12:16:18;;;;;;;1.92;1.15;;;29.00;85.00;;;;;;4938850;29;20200;-69
2023/07/07 12:18:48;;;;;;;1.88;1.40;;;28.90;82.00;;;;;;4938671;29;20232;-69
2023/07/07 12:21:17;;;;;;;2.42;1.30;;;28.90;82.70;;;;;;4921853;29;20210;-70
2023/07/07 12:23:51;;;;;;;2.97;1.30;;;28.80;83.20;;;;;;4919706;29;20209;-69
2023/07/07 12:26:23;;;;;;;2.88;1.75;;;28.70;82.90;;;;;;4919809;29;20679;-69
2023/07/07 12:28:54;;;;;;;2.90;1.50;;;28.40;83.60;;;;;;4929876;29;20250;-69
2023/07/07 12:31:22;;;;;;;2.22;1.40;;;28.40;82.50;;;;;;4920871;29;20209;-69
2023/07/07 12:33:51;;;;;;;2.40;1.30;;;28.40;82.30;;;;;;4919140;29;20661;-68
2023/07/07 12:36:19;;;;;;;2.00;1.30;;;28.30;82.90;;;;;;4919690;29;20212;-68
2023/07/07 12:38:50;;;;;;;3.05;1.70;;;28.50;83.20;;;;;;4919134;29;20229;-68
2023/07/07 12:41:22;;;;;;;4.03;1.55;;;28.70;84.40;;;;;;4918950;29;20228;-68
2023/07/07 12:43:55;;;;;;;2.90;1.40;;;28.80;83.70;;;;;;4919376;29;20269;-68
2023/07/07 12:46:28;;;;;;;2.58;1.60;;;28.90;83.20;;;;;;4919199;29;20209;-68
2023/07/07 12:48:57;;;;;;;3.45;1.48;;;28.80;83.00;;;;;;4919116;29;20735;-68
2023/07/07 12:51:26;;;;;;;4.68;1.60;;;28.70;81.90;;;;;;4918934;29;20217;-68
2023/07/07 12:53:55;;;;;;;1.85;1.40;;;28.70;84.10;;;;;;4918773;29;20213;-69
2023/07/07 12:56:23;;;;;;;3.03;1.30;;;28.70;82.50;;;;;;4919093;29;20217;-68
2023/07/07 12:58:53;;;;;;;2.22;1.60;;;28.70;82.00;;;;;;4919087;29;20229;-69
2023/07/07 13:02:07;;;;;;;2.42;1.50;;;28.70;81.50;;;;;;4919038;29;20210;-68
2023/07/07 13:04:42;;;;;;;1.77;1.33;;;28.60;81.90;;;;;;4905154;29;20675;-69
2023/07/07 13:07:19;;;;;;;3.33;1.80;;;28.80;84.50;;;;;;4929983;29;20660;-69
2023/07/07 13:09:49;;;;;;;2.42;1.38;;;28.80;82.90;;;;;;4918682;29;20213;-69
2023/07/07 13:12:48;;;;;;;2.83;1.88;;;28.70;81.60;;;;;;4918550;29;20273;-69
2023/07/07 13:15:27;;;;;;;3.83;1.70;;;28.70;81.70;;;;;;4918586;29;20295;-69
2023/07/07 13:17:57;;;;;;;3.70;1.95;;;28.80;82.90;;;;;;4918802;29;20606;-69
2023/07/07 13:20:25;;;;;;;3.13;1.83;;;28.80;81.50;;;;;;4918467;29;20257;-69
2023/07/07 13:22:56;;;;;;;3.67;1.60;;;28.80;84.10;;;;;;4918700;29;20242;-69
2023/07/07 13:25:29;;;;;;;2.20;1.58;;;28.80;81.20;;;;;;4918507;29;20212;-67
2023/07/07 13:27:56;;;;;;;4.28;2.03;;;28.80;82.70;;;;;;4918478;29;20659;-67
2023/07/07 13:30:30;;;;;;;4.20;1.98;;;28.70;81.90;;;;;;4918325;29;20308;-67
2023/07/07 13:32:57;;;;;;;3.00;1.67;;;28.70;83.90;;;;;;4918294;29;20667;-67
2023/07/07 13:35:26;;;;;;;3.50;1.70;;;28.80;86.80;;;;;;4918357;29;20296;-67
2023/07/07 13:37:56;;;;;;;3.83;1.65;;;29.10;84.20;;;;;;4918453;29;20613;-67
2023/07/07 13:40:23;;;;;;;6.13;2.00;;;29.30;81.60;;;;;;4917768;29;20214;-67
2023/07/07 13:42:52;;;;;;;2.92;1.63;;;29.20;83.50;;;;;;4917528;29;20237;-68
2023/07/07 13:45:21;;;;;;;3.80;2.30;;;29.10;82.70;;;;;;4917977;29;20686;-68
2023/07/07 13:47:51;;;;;;;4.68;2.28;;;29.10;81.40;;;;;;4918015;29;20238;-68
2023/07/07 13:50:21;;;;;;;2.97;1.92;;;29.20;86.40;;;;;;4917726;29;20224;-68
2023/07/07 13:52:52;;;;;;;3.30;1.88;;;29.20;82.50;;;;;;4917693;29;20224;-68
2023/07/07 13:55:19;;;;;;;3.17;1.88;;;29.30;83.40;;;;;;4917618;29;20232;-69
2023/07/07 13:57:46;;;;;;;4.43;1.80;;;29.40;83.50;;;;;;4917703;29;20713;-72
2023/07/07 14:00:21;;;;;;;3.13;1.80;;;29.30;84.10;;;;;;4917659;29;20206;-68
2023/07/07 14:02:50;;;;;;;3.45;1.73;;;29.30;81.40;;;;;;4917325;29;20711;-67
2023/07/07 14:05:19;;;;;;;4.28;2.08;;;29.40;82.00;;;;;;4920207;29;20209;-69
2023/07/07 14:07:48;;;;;;;3.03;1.75;;;29.40;80.30;;;;;;4935214;29;20229;-70
2023/07/07 14:10:28;;;;;;;3.63;1.65;;;29.40;81.20;;;;;;4926629;29;20205;-67
2023/07/07 14:12:55;;;;;;;2.50;1.70;;;29.30;80.70;;;;;;4915462;29;20320;-69
2023/07/07 14:15:33;;;;;;;3.92;1.90;;;29.30;81.00;;;;;;4925687;29;20212;-69
2023/07/07 14:18:05;;;;;;;3.70;1.98;;;29.40;82.20;;;;;;4934721;29;20228;-70
2023/07/07 14:20:38;;;;;;;3.28;1.98;;;29.40;81.30;;;;;;4923221;29;20210;-70
2023/07/07 14:23:05;;;;;;;2.85;2.00;;;29.50;82.70;;;;;;4915692;29;20324;-69
2023/07/07 14:25:32;;;;;;;3.75;1.90;;;29.30;80.40;;;;;;4925734;29;20663;-68
2023/07/07 14:28:00;;;;;;;3.45;1.90;;;29.20;81.40;;;;;;4934393;29;20240;-68
2023/07/07 14:30:27;;;;;;;3.00;1.80;;;29.00;81.20;;;;;;4919470;29;20626;-69
2023/07/07 14:32:56;;;;;;;5.55;1.90;;;29.10;80.80;;;;;;4927889;29;20299;-72
2023/07/07 14:35:29;;;;;;;2.88;1.77;;;29.00;83.50;;;;;;4933952;29;20295;-70
2023/07/07 14:38:01;;;;;;;3.40;1.92;;;29.10;84.90;;;;;;4934597;29;20232;-71
2023/07/07 14:40:31;;;;;;;3.92;2.05;;;29.00;82.50;;;;;;4924075;29;20217;-72
2023/07/07 14:42:59;;;;;;;3.10;1.80;;;29.10;81.10;;;;;;4914594;29;20339;-71
2023/07/07 14:45:30;;;;;;;3.15;1.80;;;29.20;81.50;;;;;;4924737;29;20215;-71
2023/07/07 14:47:58;;;;;;;3.53;1.92;;;29.40;83.40;;;;;;4933385;29;20541;-71
2023/07/07 14:50:29;;;;;;;3.92;2.10;;;29.60;82.70;;;;;;4923562;29;20206;-70
2023/07/07 14:52:57;;;;;;;3.63;1.90;;;29.40;81.10;;;;;;4923662;29;20216;-72
2023/07/07 14:55:26;;;;;;;2.88;1.85;;;29.50;81.00;;;;;;4924953;29;20213;-71
2023/07/07 14:57:57;;;;;;;3.35;1.98;;;29.50;81.00;;;;;;4914390;29;20237;-71
2023/07/07 15:00:29;;;;;;;3.35;1.98;;;29.70;80.10;;;;;;4914973;29;20210;-71
2023/07/07 15:02:57;;;;;;;4.13;2.10;;;29.90;82.00;;;;;;4927897;29;20699;-71
2023/07/07 15:05:34;;;;;;;4.20;2.15;;;30.10;80.10;;;;;;4924338;29;20216;-71
2023/07/07 15:08:08;;;;;;;3.88;2.28;;;30.20;79.50;;;;;;4914837;29;20288;-71
2023/07/07 15:10:37;;;;;;;3.90;2.10;;;30.20;80.40;;;;;;4914889;29;20214;-71
2023/07/07 15:13:04;;;;;;;4.13;1.95;;;30.10;78.10;;;;;;4914337;29;20683;-71
2023/07/07 15:15:31;;;;;;;3.67;2.20;;;29.90;79.20;;;;;;4925354;29;20217;-71
2023/07/07 15:17:58;;;;;;;3.53;2.15;;;29.70;77.00;;;;;;4933934;29;20225;-72
2023/07/07 15:20:25;;;;;;;2.65;2.00;;;29.50;76.90;;;;;;4925193;29;20300;-71
2023/07/07 15:22:53;;;;;;;4.05;2.08;;;29.40;76.80;;;;;;4916974;29;20239;-71
2023/07/07 15:25:21;;;;;;;3.60;2.03;;;29.50;76.60;;;;;;4926157;29;20213;-73
2023/07/07 15:27:47;;;;;;;6.30;2.38;;;29.50;78.20;;;;;;4935013;29;20239;-71
2023/07/07 15:30:17;;;;;;;2.83;2.00;;;29.60;80.60;;;;;;4925091;29;20209;-72
2023/07/07 15:32:44;;;;;;;3.42;2.05;;;29.50;79.90;;;;;;4915055;29;20220;-71
2023/07/07 15:35:16;;;;;;;3.17;2.00;;;29.50;80.10;;;;;;4922390;29;20209;-71
2023/07/07 15:37:45;;;;;;;8.52;2.20;;;29.70;79.90;;;;;;4933286;29;20651;-70
2023/07/07 15:40:17;;;;;;;5.60;2.35;;;29.70;78.70;;;;;;4925125;29;20668;-70
2023/07/07 15:42:44;;;;;;;3.90;1.90;;;29.90;80.50;;;;;;4925710;29;20254;-69
2023/07/07 15:45:13;;;;;;;3.60;2.13;;;30.00;79.00;;;;;;4937804;29;20214;-69
2023/07/07 15:47:41;;;;;;;4.15;2.25;;;29.90;78.70;;;;;;4939113;29;20232;-69
2023/07/07 15:50:13;;;;;;;3.95;2.08;;;29.90;78.90;;;;;;4939090;29;20215;-69
2023/07/07 15:52:40;;;;;;;3.88;2.22;;;30.10;82.30;;;;;;4939515;29;20216;-70
2023/07/07 15:55:08;;;;;;;3.85;2.15;;;30.20;80.20;;;;;;4939433;29;20739;-70
2023/07/07 15:57:36;;;;;;;2.15;1.75;;;30.30;80.30;;;;;;4939255;29;20229;-69
2023/07/07 16:00:23;;;;;;;6.03;2.20;;;30.30;78.60;;;;;;4939171;29;20218;-69
2023/07/07 16:02:50;;;;;;;3.47;2.20;;;30.20;78.10;;;;;;4939515;29;20599;-69
2023/07/07 16:05:17;;;;;;;4.55;2.03;;;30.20;78.70;;;;;;4939248;29;20213;-69
2023/07/07 16:07:44;;;;;;;5.85;2.70;;;30.00;78.10;;;;;;4939019;29;20229;-69
2023/07/07 16:10:11;;;;;;;4.80;2.30;;;30.00;79.80;;;;;;4938969;29;20215;-69
2023/07/07 16:12:40;;;;;;;5.30;2.25;;;30.30;80.40;;;;;;4938766;29;20212;-69
2023/07/07 16:15:08;;;;;;;4.10;2.15;;;30.40;79.30;;;;;;4939042;29;20205;-70
2023/07/07 16:17:35;;;;;;;5.35;2.60;;;30.40;79.30;;;;;;4938920;29;20233;-69
2023/07/07 16:20:16;;;;;;;3.53;2.17;;;30.40;79.70;;;;;;4938986;29;20308;-69
2023/07/07 16:22:46;;;;;;;3.20;2.17;;;30.50;80.30;;;;;;4938884;29;20212;-69
2023/07/07 16:25:14;;;;;;;4.55;2.40;;;30.30;79.40;;;;;;4938673;29;20208;-69
2023/07/07 16:27:43;;;;;;;3.40;2.20;;;30.50;80.70;;;;;;4938604;29;20235;-69
2023/07/07 16:30:16;;;;;;;4.53;2.22;;;30.60;80.80;;;;;;4938810;29;20211;-69
2023/07/07 16:32:43;;;;;;;5.68;2.17;;;30.60;80.60;;;;;;4938668;29;20204;-70
2023/07/07 16:35:11;;;;;;;5.75;2.70;;;30.40;77.90;;;;;;4938572;29;20212;-69
2023/07/07 16:37:39;;;;;;;6.35;3.03;;;30.10;78.80;;;;;;4938280;29;20708;-69
2023/07/07 16:40:20;;;;;;;4.63;2.75;;;30.00;78.60;;;;;;4938391;29;20264;-69
2023/07/07 16:42:49;;;;;;;4.28;2.72;;;30.00;80.40;;;;;;4937831;29;20213;-69
2023/07/07 16:45:16;;;;;;;3.38;2.20;;;30.30;82.70;;;;;;4938113;29;20208;-69
2023/07/07 16:47:43;;;;;;;4.35;2.22;;;30.50;80.30;;;;;;4938230;29;20236;-69
2023/07/07 16:50:20;;;;;;;3.80;2.42;;;30.20;83.20;;;;;;4938264;29;20215;-69
2023/07/07 16:52:47;;;;;;;3.70;2.40;;;30.10;79.30;;;;;;4938582;29;20204;-69
2023/07/07 16:55:14;;;;;;;5.95;2.45;;;30.00;78.10;;;;;;4937324;29;20268;-69
2023/07/07 16:57:41;;;;;;;5.13;2.78;;;29.90;80.10;;;;;;4937915;29;20229;-69
2023/07/07 17:00:16;;;;;;;3.95;2.47;;;29.90;78.10;;;;;;4937866;29;20209;-69
2023/07/07 17:02:43;;;;;;;5.72;2.70;;;29.80;78.00;;;;;;4937875;29;20213;-69
2023/07/07 17:05:12;;;;;;;4.80;2.65;;;29.90;79.80;;;;;;4938040;29;20209;-69
2023/07/07 17:07:39;;;;;;;4.82;2.60;;;29.90;81.40;;;;;;4937941;29;20232;-69
2023/07/07 17:10:24;;;;;;;3.90;2.25;;;29.90;82.20;;;;;;4934564;29;20209;-70
2023/07/07 17:12:50;;;;;;;3.40;2.20;;;29.90;81.90;;;;;;4937441;29;20212;-70
2023/07/07 17:15:19;;;;;;;5.32;2.35;;;30.00;83.80;;;;;;4937239;29;20291;-69
2023/07/07 17:17:45;;;;;;;4.40;2.45;;;29.80;82.10;;;;;;4937234;29;20265;-70
2023/07/07 17:20:16;;;;;;;3.58;2.30;;;29.80;83.30;;;;;;4918360;29;20572;-70
2023/07/07 17:22:43;;;;;;;3.25;2.30;;;29.60;83.60;;;;;;4918442;29;20213;-69
2023/07/07 17:25:13;;;;;;;3.63;2.22;;;29.60;83.30;;;;;;4924460;29;20271;-69
2023/07/07 17:27:40;;;;;;;3.80;2.30;;;29.40;83.50;;;;;;4935231;29;20225;-69
2023/07/07 17:30:31;;;;;;;3.35;2.33;;;29.50;85.00;;;;;;4917856;29;20210;-70
2023/07/07 17:32:58;;;;;;;4.78;2.25;;;29.40;85.90;;;;;;4916422;29;20683;-69
2023/07/07 17:35:27;;;;;;;5.90;2.92;;;29.40;85.60;;;;;;4936588;29;20205;-70
2023/07/07 17:37:55;;;;;;;4.72;2.55;;;29.40;86.80;;;;;;4936998;29;20229;-70
2023/07/07 17:40:31;;;;;;;5.00;2.53;;;29.30;84.60;;;;;;4937106;29;20296;-69
2023/07/07 17:42:58;;;;;;;5.80;2.43;;;29.20;87.40;;;;;;4936874;29;20712;-70
2023/07/07 17:45:25;;;;;;;4.35;2.63;;;29.10;86.20;;;;;;4936941;29;20243;-69
2023/07/07 17:47:53;;;;;;;4.28;2.60;;;29.00;86.30;;;;;;4936159;29;20782;-70
2023/07/07 17:50:24;;;;;;;4.30;2.90;;;29.00;89.60;;;;;;4918054;29;20694;-70
2023/07/07 17:52:51;;;;;;;4.38;2.25;;;29.10;91.00;;;;;;4917883;29;20561;-70
2023/07/07 17:55:20;;;;;;;4.78;2.80;;;29.10;91.00;;;;;;4917913;29;20217;-70
2023/07/07 17:57:47;;;;;;;5.32;2.70;;;29.10;90.10;;;;;;4917667;29;20261;-69
2023/07/07 18:00:21;;;;;;;5.22;2.90;;;29.10;90.70;;;;;;4918056;29;20201;-70
2023/07/07 18:02:49;;;;;;;3.95;2.85;;;29.10;90.80;;;;;;4919393;29;20587;-70
2023/07/07 18:05:18;;;;;;;4.15;2.60;;;29.00;90.60;;;;;;4935549;29;20247;-70
2023/07/07 18:07:50;;;;;;;4.40;2.53;;;28.90;91.50;;;;;;4916516;29;20228;-70
2023/07/07 18:10:20;;;;;;;3.55;2.17;;;28.90;91.60;;;;;;4917910;29;20217;-70
2023/07/07 18:12:50;;;;;;;5.03;3.38;;;28.80;92.10;;;;;;4917740;29;20565;-70
2023/07/07 18:15:17;;;;;;;6.18;3.50;;;28.70;91.50;;;;;;4917662;29;20226;-70
2023/07/07 18:17:44;;;;;;;12.75;5.63;;;28.50;91.40;;;;;;4917482;29;20230;-69
2023/07/07 18:20:25;;;;;;;5.15;3.20;;;28.40;92.20;;;;;;4917503;29;20232;-69
2023/07/07 18:22:52;;;;;;;5.05;2.97;;;28.10;90.40;;;;;;4917647;29;20217;-71
2023/07/07 18:25:19;;;;;;;4.95;2.60;;;28.00;91.10;;;;;;4934761;29;20741;-69
2023/07/07 18:27:45;;;;;;;4.40;2.65;;;27.80;91.40;;;;;;4936194;29;20315;-69
2023/07/07 18:30:32;;;;;;;6.30;2.38;;;27.80;90.80;;;;;;4917057;29;20216;-70
2023/07/07 18:32:59;;;;;;;4.82;2.63;;;27.70;91.60;;;;;;4917152;29;20569;-70
2023/07/07 18:35:29;;;;;;;4.53;2.60;;;27.50;91.30;;;;;;4917244;29;20206;-69
2023/07/07 18:37:57;;;;;;;4.45;2.65;;;27.30;91.20;;;;;;4934566;29;20709;-69
2023/07/07 18:40:26;;;;;;;4.85;2.75;;;27.20;91.50;;;;;;4917068;29;20215;-70
2023/07/07 18:42:54;;;;;;;5.25;2.88;;;27.10;92.30;;;;;;4917049;29;20265;-70
2023/07/07 18:45:21;;;;;;;8.82;2.65;;;27.10;92.20;;;;;;4917053;29;20252;-69
2023/07/07 18:47:48;;;;;;;5.97;2.20;;;27.20;94.40;;;;;;4917140;29;20236;-70
2023/07/07 18:50:19;;;;;;;6.47;2.53;;;27.20;93.80;;;;;;4916912;29;20213;-69
2023/07/07 18:52:47;;;;;;;4.30;2.55;;;27.10;94.30;;;;;;4916902;29;20206;-69
2023/07/07 18:55:14;;;;;;;6.10;3.20;;;26.90;94.30;;;;;;4916472;29;20669;-69
2023/07/07 18:57:44;;;;;;;4.40;2.42;;;26.80;93.50;;;;;;4916875;29;20243;-70
2023/07/07 19:00:32;;;;;;;8.10;2.80;;;26.80;94.70;;;;;;4916650;29;20218;-72
2023/07/07 19:02:59;;;;;;;6.90;3.08;;;26.70;95.60;;;;;;4917116;29;20303;-69
2023/07/07 19:05:28;;;;;;;4.00;2.67;;;26.60;95.70;;;;;;4917129;29;20237;-69
2023/07/07 19:07:57;;;;;;;5.40;3.05;;;26.40;96.00;;;;;;4924303;29;20225;-69
2023/07/07 19:10:30;;;;;;;4.93;2.95;;;26.30;96.50;;;;;;4932783;29;20656;-69
2023/07/07 19:12:58;;;;;;;5.25;2.90;;;26.30;96.70;;;;;;4934748;29;20215;-69
2023/07/07 19:15:24;;;;;;;4.70;2.72;;;26.10;96.70;;;;;;4932273;29;20213;-69
2023/07/07 19:17:51;;;;;;;5.05;2.63;;;26.00;96.50;;;;;;4933505;29;20658;-69
2023/07/07 19:20:18;;;;;;;4.20;2.15;;;26.00;96.90;;;;;;4933762;29;20545;-69
2023/07/07 19:22:46;;;;;;;5.30;2.70;;;25.90;97.20;;;;;;4934555;29;20204;-69
2023/07/07 19:25:14;;;;;;;6.32;2.75;;;25.90;97.10;;;;;;4929351;29;20224;-69
2023/07/07 19:27:41;;;;;;;6.53;2.83;;;25.80;97.30;;;;;;4934407;29;20311;-69
2023/07/07 19:30:12;;;;;;;5.65;3.03;;;25.70;97.50;;;;;;4934118;29;20243;-69
2023/07/07 19:32:39;;;;;;;4.38;2.22;;;25.50;97.60;;;;;;4935163;29;20204;-69
2023/07/07 19:35:07;;;;;;;5.65;2.85;;;25.50;97.90;;;;;;4934048;29;20233;-69
2023/07/07 19:37:34;;;;;;;4.95;2.70;;;25.40;97.90;;;;;;4935431;28;20229;-69
2023/07/07 19:40:01;;;;;;;4.63;2.85;;;25.30;98.30;;;;;;4934176;29;20220;-69
2023/07/07 19:42:29;;;;;;;5.00;2.90;;;25.20;98.50;;;;;;4934143;29;20228;-70
2023/07/07 19:44:56;;;;;;;4.78;2.78;;;25.20;98.90;;;;;;4934478;29;20236;-70
2023/07/07 19:47:23;;;;;;;5.95;2.53;;;25.10;99.00;;;;;;4934760;29;20224;-69
2023/07/07 19:49:50;;;;;;;5.75;2.70;;;24.90;99.40;;;;;;4924310;29;20210;-69
2023/07/07 19:52:18;;;;;;;6.25;2.80;;;24.90;99.90;;;;;;4933777;29;20213;-69
2023/07/07 19:54:46;;;;;;;4.35;2.90;;;24.80;99.90;;;;;;4921250;29;20210;-69
2023/07/07 19:57:21;;;;;;;5.88;2.72;;;24.70;99.90;;;;;;4934193;29;20240;-69
2023/07/07 19:59:50;;;;;;;6.60;3.50;;;24.50;99.90;;;;;;4927530;29;20232;-69
2023/07/07 20:02:18;;;;;;;4.90;3.05;;;24.40;99.90;;;;;;4932070;29;20694;-69
2023/07/07 20:04:45;;;;;;;5.07;3.22;;;24.20;99.90;;;;;;4924642;29;20237;-69
2023/07/07 20:07:13;;;;;;;4.78;2.80;;;24.00;99.90;;;;;;4931555;29;20233;-69
2023/07/07 20:09:40;;;;;;;5.97;3.47;;;24.00;99.90;;;;;;4924495;29;20216;-69
2023/07/07 20:12:12;;;;;;;5.45;3.28;;;23.90;99.90;;;;;;4931600;29;20649;-69
2023/07/07 20:14:39;;;;;;;7.68;3.65;;;23.80;99.90;;;;;;4925442;29;20573;-69
2023/07/07 20:17:12;;;;;;;7.80;4.07;;;23.70;99.90;;;;;;4928824;29;20214;-69
2023/07/07 20:19:38;;;;;;;6.22;3.75;;;23.70;99.90;;;;;;4922259;29;20210;-69
2023/07/07 20:22:12;;;;;;;9.77;3.55;;;23.50;99.90;;;;;;4928767;29;20224;-69
2023/07/07 20:24:39;;;;;;;5.68;2.97;;;23.50;99.90;;;;;;4930735;29;20237;-69
2023/07/07 20:27:11;;;;;;;8.60;3.40;;;23.40;99.90;;;;;;4924170;29;20216;-69
2023/07/07 20:29:38;;;;;;;4.47;2.65;;;23.40;99.90;;;;;;4933815;29;20660;-69
2023/07/07 20:32:13;;;;;;;5.38;3.20;;;23.20;99.90;;;;;;4924873;29;20209;-69
2023/07/07 20:34:40;;;;;;;5.97;3.08;;;23.10;99.90;;;;;;4937321;29;20200;-69
2023/07/07 20:37:12;;;;;;;4.57;2.55;;;23.00;99.90;;;;;;4929323;29;20309;-69
2023/07/07 20:39:39;;;;;;;5.25;2.70;;;22.90;99.90;;;;;;4935569;29;20729;-69
2023/07/07 20:42:10;;;;;;;6.82;3.15;;;22.90;99.90;;;;;;4927297;29;20683;-69
2023/07/07 20:44:37;;;;;;;13.07;5.50;;;22.80;99.90;;;;;;4921909;29;20239;-69
2023/07/07 20:47:04;;;;;;;10.40;5.25;;;22.70;99.90;;;;;;4927637;29;20236;-69